Time;durP1;ratioP1;P1;durP2;ratioP2;P2;SDS_P1;SDS_P2;PMS_P1;PMS_P2;Temp;Humidity;BMP_temperature;BMP_pressure;BME280_temperature;BME280_humidity;BME280_pressure;Samples;Min_cycle;Max_cycle;Signal;HPM_P1;HPM_P2
2022/08/13 00:01:05;;;;;;;3.42;1.65;;;;;;;;;;5112656;28;20031;-73
2022/08/13 00:03:55;;;;;;;1.70;1.30;;;;;;;;;;5113811;28;20064;-74
2022/08/13 00:09:26;;;;;;;3.28;1.75;;;;;;;;;;5114115;28;19961;-73
2022/08/13 00:15:20;;;;;;;2.95;1.30;;;;;;;;;;5114114;27;20023;-74
2022/08/13 00:18:06;;;;;;;2.42;1.60;;;;;;;;;;5113102;28;20466;-74
2022/08/13 00:20:53;;;;;;;3.08;1.48;;;;;;;;;;5114598;28;20476;-76
2022/08/13 00:23:39;;;;;;;2.70;1.45;;;;;;;;;;5111539;28;20389;-76
2022/08/13 00:26:25;;;;;;;2.78;2.10;;;;;;;;;;5106238;28;20062;-76
2022/08/13 00:29:11;;;;;;;3.50;1.70;;;;;;;;;;5105671;28;20096;-76
2022/08/13 00:31:57;;;;;;;2.28;1.40;;;;;;;;;;5127518;27;20045;-76
2022/08/13 00:34:43;;;;;;;3.25;2.05;;;;;;;;;;5116171;27;20476;-78
2022/08/13 00:37:29;;;;;;;2.53;1.45;;;;;;;;;;5110860;27;20034;-76
2022/08/13 00:40:17;;;;;;;2.55;1.80;;;;;;;;;;5113446;27;20035;-76
2022/08/13 00:43:04;;;;;;;4.20;1.50;;;;;;;;;;5103620;28;20038;-70
2022/08/13 00:45:50;;;;;;;2.30;1.60;;;;;;;;;;5112810;27;20035;-74
2022/08/13 00:48:47;;;;;;;2.40;1.45;;;;;;;;;;5109193;28;20591;-72
2022/08/13 00:51:33;;;;;;;5.40;1.77;;;;;;;;;;5104433;28;20031;-74
2022/08/13 00:54:19;;;;;;;2.08;1.33;;;;;;;;;;5097368;27;20031;-72
2022/08/13 00:57:06;;;;;;;2.15;1.48;;;;;;;;;;5111485;28;20023;-73
2022/08/13 00:59:53;;;;;;;2.38;1.42;;;;;;;;;;5112428;28;20130;-79
2022/08/13 01:02:40;;;;;;;4.35;1.80;;;;;;;;;;5119136;27;20164;-80
2022/08/13 01:05:25;;;;;;;3.83;1.92;;;;;;;;;;5101117;28;20038;-77
2022/08/13 01:08:12;;;;;;;3.92;2.17;;;;;;;;;;5095761;28;20035;-78
2022/08/13 01:11:01;;;;;;;2.90;1.80;;;;;;;;;;5112713;28;20460;-78
2022/08/13 01:13:48;;;;;;;6.18;3.38;;;;;;;;;;5114095;27;20031;-78
2022/08/13 01:16:36;;;;;;;4.75;2.50;;;;;;;;;;5112201;27;20031;-75
2022/08/13 01:19:21;;;;;;;7.90;2.38;;;;;;;;;;5106120;28;20028;-72
2022/08/13 01:22:07;;;;;;;3.28;1.90;;;;;;;;;;5106791;27;20032;-73
2022/08/13 01:24:52;;;;;;;2.78;1.63;;;;;;;;;;5095559;28;20084;-73
2022/08/13 01:27:39;;;;;;;3.67;1.45;;;;;;;;;;5104484;28;20119;-72
2022/08/13 01:30:25;;;;;;;1.88;1.60;;;;;;;;;;5103375;28;20024;-73
2022/08/13 01:33:11;;;;;;;3.80;1.75;;;;;;;;;;5106820;28;20111;-74
2022/08/13 01:35:58;;;;;;;2.20;1.40;;;;;;;;;;5115397;27;20089;-76
2022/08/13 01:38:44;;;;;;;3.97;2.20;;;;;;;;;;5090820;28;20099;-70
2022/08/13 01:41:30;;;;;;;2.85;1.50;;;;;;;;;;5084867;28;20031;-72
2022/08/13 01:44:16;;;;;;;2.95;1.70;;;;;;;;;;5107922;28;20085;-72
2022/08/13 01:53:13;;;;;;;3.17;1.60;;;;;;;;;;5107147;28;20180;-71
2022/08/13 01:56:00;;;;;;;3.75;1.55;;;;;;;;;;5106198;28;20027;-71
2022/08/13 01:58:47;;;;;;;2.30;1.50;;;;;;;;;;5097727;28;20032;-71
2022/08/13 02:01:33;;;;;;;3.45;1.70;;;;;;;;;;5089166;28;20035;-72
2022/08/13 02:04:19;;;;;;;3.40;1.55;;;;;;;;;;5110002;28;20114;-71
2022/08/13 02:07:05;;;;;;;4.13;1.60;;;;;;;;;;5115253;27;20043;-71
2022/08/13 02:09:52;;;;;;;1.95;1.77;;;;;;;;;;5104227;28;20024;-72
2022/08/13 02:12:39;;;;;;;2.50;1.73;;;;;;;;;;5117599;27;20066;-73
2022/08/13 02:15:25;;;;;;;3.55;1.75;;;;;;;;;;5101962;22;20112;-71
2022/08/13 02:18:17;;;;;;;3.63;1.60;;;;;;;;;;5081765;28;20028;-72
2022/08/13 02:21:03;;;;;;;2.65;1.70;;;;;;;;;;5056926;28;20025;-72
2022/08/13 02:23:53;;;;;;;3.20;1.50;;;;;;;;;;5070249;28;20028;-72
2022/08/13 02:26:42;;;;;;;4.55;1.90;;;;;;;;;;5046469;28;20219;-72
2022/08/13 02:29:28;;;;;;;3.47;1.73;;;;;;;;;;5045392;28;20028;-80
2022/08/13 02:32:14;;;;;;;3.47;1.90;;;;;;;;;;5054301;28;20043;-72
2022/08/13 02:34:59;;;;;;;4.32;1.70;;;;;;;;;;5061252;28;20025;-74
2022/08/13 02:37:47;;;;;;;4.75;1.77;;;;;;;;;;5050576;28;20517;-75
2022/08/13 02:43:37;;;;;;;1.50;1.40;;;;;;;;;;5059611;28;20460;-74
2022/08/13 02:46:25;;;;;;;5.00;1.90;;;;;;;;;;5070808;28;20039;-74
2022/08/13 02:49:12;;;;;;;3.55;1.77;;;;;;;;;;5066021;28;20134;-74
2022/08/13 02:51:59;;;;;;;2.83;1.92;;;;;;;;;;5059508;28;20048;-74
2022/08/13 02:54:46;;;;;;;2.78;1.88;;;;;;;;;;5040942;28;20044;-74
2022/08/13 02:57:31;;;;;;;4.10;1.92;;;;;;;;;;5070120;28;20016;-74
2022/08/13 03:00:19;;;;;;;2.17;1.98;;;;;;;;;;5065004;28;20491;-74
2022/08/13 03:03:05;;;;;;;3.53;1.60;;;;;;;;;;5054664;28;20116;-74
2022/08/13 03:05:51;;;;;;;3.85;1.63;;;;;;;;;;5069848;28;20038;-74
2022/08/13 03:08:37;;;;;;;1.52;1.42;;;;;;;;;;5052240;28;20075;-83
2022/08/13 03:11:22;;;;;;;3.13;1.52;;;;;;;;;;5051155;28;20048;-73
2022/08/13 03:14:09;;;;;;;1.90;1.70;;;;;;;;;;5074855;28;20539;-73
2022/08/13 03:16:55;;;;;;;2.05;1.70;;;;;;;;;;5071887;28;20391;-72
2022/08/13 03:19:41;;;;;;;2.30;1.77;;;;;;;;;;5058487;28;20032;-72
2022/08/13 03:22:26;;;;;;;3.20;1.90;;;;;;;;;;5057953;28;20107;-72
2022/08/13 03:25:12;;;;;;;2.40;1.50;;;;;;;;;;5047367;28;20028;-73
2022/08/13 03:28:01;;;;;;;3.33;1.90;;;;;;;;;;5059830;28;20025;-74
2022/08/13 03:30:46;;;;;;;3.33;1.67;;;;;;;;;;5058087;28;20040;-74
2022/08/13 03:33:32;;;;;;;5.13;2.15;;;;;;;;;;5068212;28;20086;-72
2022/08/13 03:36:18;;;;;;;2.22;1.60;;;;;;;;;;5052636;28;20033;-74
2022/08/13 03:39:04;;;;;;;3.47;1.80;;;;;;;;;;5071563;28;20103;-74
2022/08/13 03:41:49;;;;;;;4.20;2.08;;;;;;;;;;5063509;28;20041;-75
2022/08/13 03:44:35;;;;;;;2.97;1.83;;;;;;;;;;5049964;28;20037;-74
2022/08/13 03:47:21;;;;;;;2.65;1.80;;;;;;;;;;5062178;28;20033;-74
2022/08/13 03:50:07;;;;;;;2.65;2.10;;;;;;;;;;5041671;28;20055;-73
2022/08/13 03:52:53;;;;;;;3.38;1.80;;;;;;;;;;5066113;28;20077;-75
2022/08/13 03:55:39;;;;;;;2.70;2.22;;;;;;;;;;5058844;28;20032;-74
2022/08/13 03:58:26;;;;;;;5.28;1.50;;;;;;;;;;5073484;28;20036;-73
2022/08/13 04:01:14;;;;;;;2.40;1.55;;;;;;;;;;5072353;28;20059;-74
2022/08/13 04:03:59;;;;;;;2.83;1.80;;;;;;;;;;5064177;28;20025;-78
2022/08/13 04:06:45;;;;;;;2.10;1.63;;;;;;;;;;5058006;28;20036;-72
2022/08/13 04:09:30;;;;;;;3.83;1.60;;;;;;;;;;5057527;28;20439;-73
2022/08/13 04:12:16;;;;;;;3.65;1.80;;;;;;;;;;5051272;28;20028;-72
2022/08/13 04:15:02;;;;;;;2.40;1.80;;;;;;;;;;5072672;28;20040;-73
2022/08/13 04:17:47;;;;;;;2.47;1.55;;;;;;;;;;5071328;28;20032;-74
2022/08/13 04:20:34;;;;;;;4.38;1.92;;;;;;;;;;5065515;28;20485;-74
2022/08/13 04:23:21;;;;;;;4.45;1.95;;;;;;;;;;5045276;28;20036;-73
2022/08/13 04:26:08;;;;;;;3.60;1.90;;;;;;;;;;5071854;28;20029;-74
2022/08/13 04:28:53;;;;;;;5.32;2.00;;;;;;;;;;5070221;28;20056;-74
2022/08/13 04:31:39;;;;;;;2.80;1.95;;;;;;;;;;5052817;28;20043;-73
2022/08/13 04:34:25;;;;;;;2.78;1.80;;;;;;;;;;5051742;28;20044;-73
2022/08/13 04:37:11;;;;;;;2.20;1.98;;;;;;;;;;5072920;28;20026;-76
2022/08/13 04:39:57;;;;;;;3.85;1.70;;;;;;;;;;5072341;28;20040;-76
2022/08/13 04:42:45;;;;;;;4.03;1.85;;;;;;;;;;5072165;28;20099;-77
2022/08/13 04:45:31;;;;;;;6.38;1.60;;;;;;;;;;5050924;28;20132;-77
2022/08/13 04:48:17;;;;;;;4.72;1.85;;;;;;;;;;5049284;28;20028;-77
2022/08/13 04:51:05;;;;;;;2.97;1.50;;;;;;;;;;5056050;28;20056;-76
2022/08/13 04:53:50;;;;;;;2.63;1.80;;;;;;;;;;5071008;28;20498;-77
2022/08/13 04:56:36;;;;;;;2.13;1.85;;;;;;;;;;5056914;28;20024;-81
2022/08/13 04:59:22;;;;;;;2.03;1.50;;;;;;;;;;5051978;28;20036;-73
2022/08/13 05:02:08;;;;;;;5.03;1.92;;;;;;;;;;5070650;28;20032;-73
2022/08/13 05:04:54;;;;;;;2.88;1.83;;;;;;;;;;5070598;28;20021;-75
2022/08/13 05:07:39;;;;;;;2.25;1.75;;;;;;;;;;5072760;28;20036;-73
2022/08/13 05:10:25;;;;;;;3.25;1.90;;;;;;;;;;5062337;28;20070;-75
2022/08/13 05:13:21;;;;;;;2.47;1.80;;;;;;;;;;5072050;28;20111;-74
2022/08/13 05:16:08;;;;;;;5.15;1.92;;;;;;;;;;5067951;28;20028;-77
2022/08/13 05:18:54;;;;;;;3.65;2.08;;;;;;;;;;5069586;28;20029;-73
2022/08/13 05:21:41;;;;;;;3.38;1.95;;;;;;;;;;5070309;28;20024;-73
2022/08/13 05:24:27;;;;;;;1.98;1.58;;;;;;;;;;5059423;28;20039;-73
2022/08/13 05:27:13;;;;;;;3.13;1.70;;;;;;;;;;5070323;28;20098;-73
2022/08/13 05:30:00;;;;;;;2.13;1.77;;;;;;;;;;5056871;28;20032;-73
2022/08/13 05:32:46;;;;;;;2.38;1.67;;;;;;;;;;5052510;28;20045;-73
2022/08/13 05:35:32;;;;;;;3.63;1.70;;;;;;;;;;5055279;28;20521;-74
2022/08/13 05:38:21;;;;;;;5.72;1.98;;;;;;;;;;5071060;28;20415;-73
2022/08/13 05:41:10;;;;;;;5.15;1.70;;;;;;;;;;5055143;28;20134;-73
2022/08/13 05:43:55;;;;;;;2.20;1.80;;;;;;;;;;5047205;28;20032;-74
2022/08/13 05:46:41;;;;;;;2.83;2.10;;;;;;;;;;5064001;28;20036;-75
2022/08/13 05:49:27;;;;;;;2.42;1.80;;;;;;;;;;5068613;28;20032;-74
2022/08/13 05:52:12;;;;;;;3.25;2.05;;;;;;;;;;5052985;28;20024;-84
2022/08/13 05:54:58;;;;;;;3.30;1.90;;;;;;;;;;5066838;28;20031;-85
2022/08/13 05:57:43;;;;;;;2.92;1.75;;;;;;;;;;5049201;28;20085;-87
2022/08/13 06:03:35;;;;;;;1.95;1.60;;;;;;;;;;5070838;28;20396;-84
2022/08/13 06:06:22;;;;;;;1.92;1.70;;;;;;;;;;5069759;28;20094;-85
2022/08/13 06:09:08;;;;;;;2.22;2.00;;;;;;;;;;5055947;28;20123;-85
2022/08/13 06:11:54;;;;;;;4.03;2.58;;;;;;;;;;5041851;28;20378;-77
2022/08/13 06:14:39;;;;;;;3.03;1.73;;;;;;;;;;5056699;28;20426;-74
2022/08/13 06:17:25;;;;;;;3.25;1.63;;;;;;;;;;5049132;28;20104;-74
2022/08/13 06:20:11;;;;;;;3.20;2.05;;;;;;;;;;5047795;28;20044;-76
2022/08/13 06:22:58;;;;;;;5.20;1.98;;;;;;;;;;5054854;28;20036;-74
2022/08/13 06:25:44;;;;;;;3.97;1.75;;;;;;;;;;5041069;28;20063;-75
2022/08/13 06:28:31;;;;;;;2.80;1.63;;;;;;;;;;5069556;28;20033;-75
2022/08/13 06:31:25;;;;;;;2.92;2.00;;;;;;;;;;5069207;28;20032;-86
2022/08/13 06:34:11;;;;;;;3.05;1.67;;;;;;;;;;5051801;28;20394;-74
2022/08/13 06:36:56;;;;;;;3.25;1.70;;;;;;;;;;5061741;28;20025;-75
2022/08/13 06:39:43;;;;;;;4.50;2.00;;;;;;;;;;5053167;28;20032;-75
2022/08/13 06:42:32;;;;;;;4.18;2.00;;;;;;;;;;5069349;28;20372;-74
2022/08/13 06:45:21;;;;;;;4.75;2.17;;;;;;;;;;5069362;28;20094;-74
2022/08/13 06:48:06;;;;;;;3.90;2.40;;;;;;;;;;5057682;28;20048;-75
2022/08/13 06:50:52;;;;;;;4.85;2.00;;;;;;;;;;5055889;28;20055;-77
2022/08/13 06:53:39;;;;;;;4.38;2.17;;;;;;;;;;5060560;28;20025;-77
2022/08/13 06:56:26;;;;;;;2.10;1.70;;;;;;;;;;5050461;28;20036;-76
2022/08/13 06:59:13;;;;;;;3.72;1.88;;;;;;;;;;5051995;28;20029;-77
2022/08/13 07:02:00;;;;;;;2.75;1.70;;;;;;;;;;5051957;28;20036;-77
2022/08/13 07:04:47;;;;;;;3.05;1.83;;;;;;;;;;5050665;28;20036;-77
2022/08/13 07:07:33;;;;;;;3.95;1.70;;;;;;;;;;5070652;28;20036;-76
2022/08/13 07:10:21;;;;;;;2.92;2.00;;;;;;;;;;5056020;28;20398;-75
2022/08/13 07:13:07;;;;;;;5.25;2.25;;;;;;;;;;5054962;28;20036;-76
2022/08/13 07:15:53;;;;;;;2.13;1.60;;;;;;;;;;5055239;28;20117;-76
2022/08/13 07:18:38;;;;;;;2.85;1.70;;;;;;;;;;5061952;28;20028;-76
2022/08/13 07:21:24;;;;;;;3.20;1.55;;;;;;;;;;5055199;28;20039;-77
2022/08/13 07:24:10;;;;;;;5.78;2.28;;;;;;;;;;5052049;28;20054;-82
2022/08/13 07:26:59;;;;;;;2.97;1.75;;;;;;;;;;5052132;28;20043;-80
2022/08/13 07:29:49;;;;;;;4.15;1.77;;;;;;;;;;5056028;28;20032;-73
2022/08/13 07:32:38;;;;;;;3.20;1.75;;;;;;;;;;5051419;28;20487;-72
2022/08/13 07:35:23;;;;;;;4.40;1.85;;;;;;;;;;5057363;28;20457;-73
2022/08/13 07:38:09;;;;;;;2.95;2.15;;;;;;;;;;5067470;28;20098;-72
2022/08/13 07:40:55;;;;;;;2.83;1.50;;;;;;;;;;5064188;28;20040;-72
2022/08/13 07:43:43;;;;;;;4.15;2.13;;;;;;;;;;5067683;28;20028;-75
2022/08/13 07:46:34;;;;;;;3.13;1.52;;;;;;;;;;5055888;28;20043;-79
2022/08/13 07:49:20;;;;;;;4.97;1.60;;;;;;;;;;5053460;28;20070;-78
2022/08/13 07:52:07;;;;;;;3.28;1.50;;;;;;;;;;5045962;28;20028;-80
2022/08/13 07:54:53;;;;;;;4.22;1.48;;;;;;;;;;5049563;28;20502;-78
2022/08/13 07:57:43;;;;;;;2.22;1.60;;;;;;;;;;5055891;28;20040;-79
2022/08/13 08:00:29;;;;;;;2.20;1.65;;;;;;;;;;5046259;28;20419;-78
2022/08/13 08:03:14;;;;;;;2.35;1.58;;;;;;;;;;5050176;28;20110;-84
2022/08/13 08:06:03;;;;;;;3.00;1.45;;;;;;;;;;5071561;28;20066;-84
2022/08/13 08:08:52;;;;;;;2.30;1.80;;;;;;;;;;5049332;28;20232;-84
2022/08/13 08:14:43;;;;;;;2.25;1.60;;;;;;;;;;5067696;28;20513;-84
2022/08/13 08:17:31;;;;;;;3.60;1.73;;;;;;;;;;5073155;28;20058;-83
2022/08/13 08:20:21;;;;;;;3.13;1.70;;;;;;;;;;5057801;28;20082;-73
2022/08/13 08:23:08;;;;;;;2.13;1.30;;;;;;;;;;5068124;28;20024;-75
2022/08/13 08:25:53;;;;;;;2.40;1.70;;;;;;;;;;5065860;28;20028;-74
2022/08/13 08:28:41;;;;;;;3.30;1.60;;;;;;;;;;5054734;28;20035;-76
2022/08/13 08:31:27;;;;;;;4.65;1.65;;;;;;;;;;5067850;28;20489;-74
2022/08/13 08:34:12;;;;;;;2.70;1.40;;;;;;;;;;5054274;28;20032;-76
2022/08/13 08:36:58;;;;;;;2.83;1.60;;;;;;;;;;5065006;28;20040;-75
2022/08/13 08:42:49;;;;;;;8.68;1.55;;;;;;;;;;5071985;28;20089;-80
2022/08/13 08:45:34;;;;;;;3.13;1.70;;;;;;;;;;5058180;28;20039;-81
2022/08/13 08:48:20;;;;;;;3.75;1.58;;;;;;;;;;5068789;28;20029;-79
2022/08/13 08:51:05;;;;;;;4.97;1.70;;;;;;;;;;5070684;28;20468;-79
2022/08/13 08:53:51;;;;;;;3.47;1.45;;;;;;;;;;5066605;28;20029;-80
2022/08/13 08:56:37;;;;;;;4.03;1.83;;;;;;;;;;5049686;28;20411;-73
2022/08/13 08:59:23;;;;;;;2.28;1.70;;;;;;;;;;5051236;28;20031;-80
2022/08/13 09:02:16;;;;;;;2.72;1.80;;;;;;;;;;5067591;28;20033;-82
2022/08/13 09:05:02;;;;;;;4.30;1.50;;;;;;;;;;5070589;28;20021;-82
2022/08/13 09:07:49;;;;;;;1.75;1.45;;;;;;;;;;5071248;28;20095;-83
2022/08/13 09:10:36;;;;;;;3.78;1.73;;;;;;;;;;5056434;28;20028;-83
2022/08/13 09:13:21;;;;;;;3.70;1.80;;;;;;;;;;5048255;28;21296;-83
2022/08/13 09:16:07;;;;;;;2.33;1.58;;;;;;;;;;5059572;28;20476;-81
2022/08/13 09:18:53;;;;;;;2.22;1.58;;;;;;;;;;5055563;28;20363;-78
2022/08/13 09:21:43;;;;;;;4.00;1.73;;;;;;;;;;5052710;28;20040;-78
2022/08/13 09:24:28;;;;;;;3.00;1.35;;;;;;;;;;5055357;28;20060;-79
2022/08/13 09:27:17;;;;;;;4.70;1.73;;;;;;;;;;5056123;28;20028;-79
2022/08/13 09:30:03;;;;;;;3.42;1.65;;;;;;;;;;5055980;28;20024;-79
2022/08/13 09:32:51;;;;;;;3.33;1.75;;;;;;;;;;5044290;28;20064;-74
2022/08/13 09:35:37;;;;;;;3.10;2.20;;;;;;;;;;5047646;28;20039;-81
2022/08/13 09:38:24;;;;;;;4.88;1.83;;;;;;;;;;5049332;28;20020;-80
2022/08/13 09:41:17;;;;;;;4.35;1.85;;;;;;;;;;5045093;28;20028;-78
2022/08/13 09:44:04;;;;;;;6.00;1.52;;;;;;;;;;5053954;28;20021;-79
2022/08/13 09:46:49;;;;;;;3.35;1.80;;;;;;;;;;5062865;28;20082;-78
2022/08/13 09:49:35;;;;;;;2.45;1.55;;;;;;;;;;5042379;28;20640;-79
2022/08/13 09:52:21;;;;;;;3.58;1.67;;;;;;;;;;5037949;28;20036;-80
2022/08/13 09:55:07;;;;;;;2.95;1.90;;;;;;;;;;5062258;28;20029;-73
2022/08/13 09:57:55;;;;;;;2.22;1.55;;;;;;;;;;5053359;28;20387;-72
2022/08/13 10:00:45;;;;;;;1.77;1.60;;;;;;;;;;5069184;28;20035;-71
2022/08/13 10:03:33;;;;;;;1.98;1.40;;;;;;;;;;5070962;28;20027;-71
2022/08/13 10:06:19;;;;;;;3.88;1.30;;;;;;;;;;5065967;28;20496;-73
2022/08/13 10:09:05;;;;;;;2.60;1.38;;;;;;;;;;5071393;28;20540;-72
2022/08/13 10:11:52;;;;;;;1.23;1.02;;;;;;;;;;5069802;28;20028;-73
2022/08/13 10:14:37;;;;;;;3.55;1.58;;;;;;;;;;5072056;28;20282;-73
2022/08/13 10:17:27;;;;;;;3.17;1.75;;;;;;;;;;5059542;28;20040;-73
2022/08/13 10:20:22;;;;;;;4.28;1.80;;;;;;;;;;5064379;28;20029;-72
2022/08/13 10:23:09;;;;;;;2.22;1.30;;;;;;;;;;5064992;28;20082;-73
2022/08/13 10:25:55;;;;;;;2.88;1.50;;;;;;;;;;5062522;28;20060;-72
2022/08/13 10:28:41;;;;;;;2.03;1.45;;;;;;;;;;5064695;28;20117;-72
2022/08/13 10:31:28;;;;;;;3.58;1.83;;;;;;;;;;5068724;28;20100;-79
2022/08/13 10:34:13;;;;;;;2.08;1.42;;;;;;;;;;5049305;28;20075;-78
2022/08/13 10:37:03;;;;;;;3.55;1.65;;;;;;;;;;5064183;28;20405;-77
2022/08/13 10:39:49;;;;;;;4.00;1.83;;;;;;;;;;5049085;28;20093;-77
2022/08/13 10:42:34;;;;;;;5.10;1.77;;;;;;;;;;5052993;28;20024;-77
2022/08/13 10:45:20;;;;;;;3.95;1.90;;;;;;;;;;5054754;28;20472;-76
2022/08/13 10:48:08;;;;;;;4.18;1.60;;;;;;;;;;5053748;28;20047;-72
2022/08/13 10:50:54;;;;;;;3.30;1.67;;;;;;;;;;5069470;28;20032;-76
2022/08/13 10:53:55;;;;;;;2.58;1.65;;;;;;;;;;5049803;28;20449;-78
2022/08/13 10:56:41;;;;;;;1.83;1.73;;;;;;;;;;5050843;28;20021;-77
2022/08/13 10:59:27;;;;;;;3.47;2.13;;;;;;;;;;5044833;28;20107;-76
2022/08/13 11:02:13;;;;;;;1.80;1.38;;;;;;;;;;5051256;28;20021;-76
2022/08/13 11:05:03;;;;;;;2.20;1.40;;;;;;;;;;5055586;28;20379;-76
2022/08/13 11:07:49;;;;;;;2.08;1.80;;;;;;;;;;5055578;28;20037;-73
2022/08/13 11:10:35;;;;;;;3.25;1.77;;;;;;;;;;5044167;28;20464;-72
2022/08/13 11:13:20;;;;;;;4.30;1.73;;;;;;;;;;5063281;28;20519;-72
2022/08/13 11:16:56;;;;;;;3.70;1.58;;;;;;;;;;5068261;28;20013;-73
2022/08/13 11:19:15;;;;;;;5.28;1.90;;;;;;;;;;5054204;28;20360;-71
2022/08/13 11:22:00;;;;;;;3.35;1.98;;;;;;;;;;5060374;28;20059;-71
2022/08/13 11:24:46;;;;;;;3.15;1.50;;;;;;;;;;5047814;28;20029;-75
2022/08/13 11:27:32;;;;;;;2.40;1.80;;;;;;;;;;5050697;28;20039;-75
2022/08/13 11:30:19;;;;;;;2.78;1.85;;;;;;;;;;5068658;28;20033;-74
2022/08/13 11:33:05;;;;;;;2.40;1.33;;;;;;;;;;5068515;28;20099;-75
2022/08/13 11:35:52;;;;;;;3.63;1.63;;;;;;;;;;5042057;28;20060;-75
2022/08/13 11:38:38;;;;;;;4.68;1.52;;;;;;;;;;5055119;28;20024;-78
2022/08/13 11:41:23;;;;;;;2.65;1.52;;;;;;;;;;5066274;28;20498;-75
2022/08/13 11:44:09;;;;;;;3.35;1.80;;;;;;;;;;5073323;28;20028;-75
2022/08/13 11:46:54;;;;;;;2.13;1.35;;;;;;;;;;5073869;28;20507;-75
2022/08/13 11:49:40;;;;;;;1.88;1.58;;;;;;;;;;5053774;28;20037;-74
2022/08/13 11:52:26;;;;;;;3.38;1.55;;;;;;;;;;5060012;28;20032;-75
2022/08/13 11:55:11;;;;;;;4.93;1.48;;;;;;;;;;5053364;28;20463;-75
2022/08/13 11:58:05;;;;;;;2.17;1.60;;;;;;;;;;5055403;28;20037;-76
2022/08/13 12:00:54;;;;;;;2.10;1.90;;;;;;;;;;5062338;28;20033;-77
2022/08/13 12:03:39;;;;;;;2.42;2.13;;;;;;;;;;5055045;28;20099;-72
2022/08/13 12:06:25;;;;;;;6.90;3.13;;;;;;;;;;5051656;28;20603;-72
2022/08/13 12:09:11;;;;;;;1.90;1.50;;;;;;;;;;5043394;28;20032;-72
2022/08/13 12:11:56;;;;;;;2.72;1.75;;;;;;;;;;5067310;28;20460;-71
2022/08/13 12:14:42;;;;;;;2.25;1.33;;;;;;;;;;5056799;28;20048;-72
2022/08/13 12:17:27;;;;;;;2.40;1.40;;;;;;;;;;5063415;28;20035;-72
2022/08/13 12:20:14;;;;;;;2.15;1.42;;;;;;;;;;5068516;28;20115;-72
2022/08/13 12:23:00;;;;;;;2.50;1.52;;;;;;;;;;5070049;28;20071;-77
2022/08/13 12:25:46;;;;;;;4.15;1.98;;;;;;;;;;5060285;28;20028;-75
2022/08/13 12:28:31;;;;;;;4.00;1.65;;;;;;;;;;5056090;28;20033;-75
2022/08/13 12:31:18;;;;;;;1.40;1.27;;;;;;;;;;5061326;28;20153;-75
2022/08/13 12:34:04;;;;;;;3.00;1.40;;;;;;;;;;5053109;28;20037;-75
2022/08/13 12:36:49;;;;;;;4.45;1.90;;;;;;;;;;5062615;28;20025;-75
2022/08/13 12:39:35;;;;;;;1.70;1.40;;;;;;;;;;5071579;28;20032;-74
2022/08/13 12:42:22;;;;;;;2.17;1.85;;;;;;;;;;5056854;28;20029;-74
2022/08/13 12:45:09;;;;;;;2.80;1.60;;;;;;;;;;5050541;28;20028;-73
2022/08/13 12:48:00;;;;;;;3.50;1.50;;;;;;;;;;5063889;28;20056;-73
2022/08/13 12:50:47;;;;;;;3.75;1.65;;;;;;;;;;5058781;28;20024;-72
2022/08/13 12:53:33;;;;;;;2.72;1.55;;;;;;;;;;5060122;28;20078;-73
2022/08/13 12:56:19;;;;;;;2.10;1.65;;;;;;;;;;5070797;28;20107;-81
2022/08/13 12:59:04;;;;;;;4.57;2.03;;;;;;;;;;5057416;28;20024;-84
2022/08/13 13:01:53;;;;;;;2.10;1.35;;;;;;;;;;5055901;28;20115;-85
2022/08/13 13:04:43;;;;;;;2.05;1.42;;;;;;;;;;5058233;28;20024;-83
2022/08/13 13:07:28;;;;;;;1.85;1.42;;;;;;;;;;5050129;28;20044;-86
2022/08/13 13:10:14;;;;;;;3.75;1.33;;;;;;;;;;5071519;28;20080;-84
2022/08/13 13:13:00;;;;;;;2.03;1.23;;;;;;;;;;5047357;28;20029;-86
2022/08/13 13:15:45;;;;;;;2.20;1.52;;;;;;;;;;5070344;28;20031;-77
2022/08/13 13:18:32;;;;;;;1.50;1.40;;;;;;;;;;5052109;28;20029;-75
2022/08/13 13:21:18;;;;;;;4.25;1.30;;;;;;;;;;5050754;28;20444;-75
2022/08/13 13:24:04;;;;;;;3.88;1.20;;;;;;;;;;5071787;28;20028;-75
2022/08/13 13:26:51;;;;;;;1.90;1.35;;;;;;;;;;5054930;28;20135;-76
2022/08/13 13:29:37;;;;;;;2.75;1.50;;;;;;;;;;5057359;28;20025;-75
2022/08/13 13:32:24;;;;;;;2.33;1.40;;;;;;;;;;5069532;28;20035;-77
2022/08/13 13:35:11;;;;;;;2.35;1.33;;;;;;;;;;5055573;28;20336;-72
2022/08/13 13:37:57;;;;;;;3.70;1.58;;;;;;;;;;5059611;28;20033;-73
2022/08/13 13:40:44;;;;;;;3.42;1.50;;;;;;;;;;5066408;28;20062;-72
2022/08/13 13:43:29;;;;;;;1.98;1.50;;;;;;;;;;5045561;28;20024;-73
2022/08/13 13:46:15;;;;;;;2.17;1.55;;;;;;;;;;5071123;28;20030;-71
2022/08/13 13:49:01;;;;;;;2.72;1.38;;;;;;;;;;5058721;28;20032;-72
2022/08/13 13:51:46;;;;;;;2.58;1.55;;;;;;;;;;5059777;28;20487;-76
2022/08/13 13:54:32;;;;;;;5.15;1.30;;;;;;;;;;5051526;28;20036;-73
2022/08/13 13:57:18;;;;;;;1.92;1.25;;;;;;;;;;5068931;28;20479;-72
2022/08/13 14:00:04;;;;;;;2.95;1.90;;;;;;;;;;5067308;28;20402;-73
2022/08/13 14:02:52;;;;;;;2.30;1.60;;;;;;;;;;5069465;28;20041;-71
2022/08/13 14:05:38;;;;;;;2.58;1.60;;;;;;;;;;5046591;28;20501;-72
2022/08/13 14:08:27;;;;;;;2.45;1.60;;;;;;;;;;5068628;28;20033;-72
2022/08/13 14:11:13;;;;;;;2.33;1.67;;;;;;;;;;5054488;28;20077;-74
2022/08/13 14:13:58;;;;;;;5.30;1.65;;;;;;;;;;5059828;28;20037;-78
2022/08/13 14:16:46;;;;;;;2.25;1.60;;;;;;;;;;5055073;28;20028;-77
2022/08/13 14:19:32;;;;;;;7.82;2.83;;;;;;;;;;5055102;28;20047;-78
2022/08/13 14:22:17;;;;;;;1.60;1.23;;;;;;;;;;5048216;28;20113;-77
2022/08/13 14:25:04;;;;;;;2.97;1.40;;;;;;;;;;5052152;28;20039;-76
2022/08/13 14:27:50;;;;;;;4.65;1.77;;;;;;;;;;5037015;28;20498;-76
2022/08/13 14:30:35;;;;;;;13.82;12.43;;;;;;;;;;5062773;28;20104;-82
2022/08/13 14:33:21;;;;;;;109.80;98.43;;;;;;;;;;5047194;28;20029;-80
2022/08/13 14:36:08;;;;;;;55.67;43.88;;;;;;;;;;5054585;28;20121;-81
2022/08/13 14:38:54;;;;;;;7.13;5.93;;;;;;;;;;5069633;28;20032;-84
2022/08/13 14:41:39;;;;;;;14.15;7.28;;;;;;;;;;5053906;28;20086;-82
2022/08/13 14:44:26;;;;;;;11.27;2.53;;;;;;;;;;5067979;28;20025;-82
2022/08/13 14:47:11;;;;;;;5.97;2.20;;;;;;;;;;5069347;28;20086;-72
2022/08/13 14:49:57;;;;;;;1.80;1.60;;;;;;;;;;5057369;28;20036;-76
2022/08/13 14:52:43;;;;;;;3.50;1.20;;;;;;;;;;5053808;28;20095;-77
2022/08/13 14:55:30;;;;;;;3.05;1.40;;;;;;;;;;5052834;28;20070;-77
2022/08/13 14:58:15;;;;;;;3.42;1.58;;;;;;;;;;5073612;28;20080;-75
2022/08/13 15:01:02;;;;;;;1.48;1.15;;;;;;;;;;5067642;28;20098;-77
2022/08/13 15:03:51;;;;;;;1.25;1.13;;;;;;;;;;5042510;28;20324;-77
2022/08/13 15:06:37;;;;;;;;;;;;;;;;;;5057185;28;20033;-75
2022/08/13 15:09:23;;;;;;;1.50;1.25;;;;;;;;;;5057517;28;19912;-79
2022/08/13 15:12:09;;;;;;;4.70;1.50;;;;;;;;;;5050182;28;20094;-77
2022/08/13 15:14:55;;;;;;;2.53;1.90;;;;;;;;;;5058666;28;20376;-77
2022/08/13 15:17:41;;;;;;;9.38;7.15;;;;;;;;;;5063046;28;20509;-79
2022/08/13 15:20:29;;;;;;;4.05;2.03;;;;;;;;;;5059292;28;20028;-78
2022/08/13 15:23:14;;;;;;;2.35;1.73;;;;;;;;;;5055708;28;20029;-75
2022/08/13 15:26:06;;;;;;;1.60;1.15;;;;;;;;;;5068402;28;20043;-76
2022/08/13 15:28:59;;;;;;;1.35;1.25;;;;;;;;;;5052711;28;20035;-75
2022/08/13 15:31:44;;;;;;;1.30;1.20;;;;;;;;;;5071080;28;20535;-74
2022/08/13 15:34:30;;;;;;;1.77;1.20;;;;;;;;;;5066964;28;20036;-76
2022/08/13 15:37:16;;;;;;;4.63;1.73;;;;;;;;;;5063386;28;20075;-75
2022/08/13 15:40:01;;;;;;;2.08;1.48;;;;;;;;;;5050863;28;20543;-75
2022/08/13 15:42:48;;;;;;;4.60;1.40;;;;;;;;;;5067886;28;20075;-71
2022/08/13 15:45:34;;;;;;;1.60;1.30;;;;;;;;;;5070959;28;20028;-73
2022/08/13 15:48:24;;;;;;;2.83;1.75;;;;;;;;;;5058171;28;20033;-72
2022/08/13 15:51:10;;;;;;;1.85;1.35;;;;;;;;;;5070520;28;20021;-71
2022/08/13 15:53:57;;;;;;;1.85;1.20;;;;;;;;;;5066936;28;20032;-71
2022/08/13 15:56:42;;;;;;;1.85;1.35;;;;;;;;;;5066909;28;20112;-74
2022/08/13 15:59:28;;;;;;;3.35;1.50;;;;;;;;;;5053460;28;20108;-73
2022/08/13 16:02:14;;;;;;;3.63;1.40;;;;;;;;;;5069245;28;20035;-81
2022/08/13 16:05:02;;;;;;;4.13;1.35;;;;;;;;;;5053947;28;20040;-73
2022/08/13 16:07:54;;;;;;;2.60;1.50;;;;;;;;;;5058831;28;20032;-72
2022/08/13 16:10:40;;;;;;;2.15;1.35;;;;;;;;;;5065010;28;20037;-72
2022/08/13 16:13:28;;;;;;;2.28;1.65;;;;;;;;;;5073826;28;20082;-71
2022/08/13 16:16:15;;;;;;;2.00;1.40;;;;;;;;;;5065828;28;20024;-71
2022/08/13 16:19:01;;;;;;;3.42;1.50;;;;;;;;;;5065799;28;20036;-72
2022/08/13 16:21:47;;;;;;;2.45;1.30;;;;;;;;;;5072903;28;20020;-75
2022/08/13 16:24:32;;;;;;;2.80;1.55;;;;;;;;;;5071420;28;20025;-75
2022/08/13 16:27:20;;;;;;;4.72;2.03;;;;;;;;;;5051559;28;20062;-74
2022/08/13 16:30:06;;;;;;;2.15;1.42;;;;;;;;;;5065246;28;20036;-74
2022/08/13 16:32:51;;;;;;;2.72;1.65;;;;;;;;;;5069424;28;20037;-78
2022/08/13 16:35:37;;;;;;;3.33;1.30;;;;;;;;;;5065921;28;20024;-74
2022/08/13 16:38:23;;;;;;;2.92;1.30;;;;;;;;;;5070751;28;20064;-75
2022/08/13 16:41:09;;;;;;;4.32;1.38;;;;;;;;;;5057971;28;20052;-82
2022/08/13 16:43:55;;;;;;;2.80;1.67;;;;;;;;;;5052766;28;20036;-85
2022/08/13 16:46:41;;;;;;;3.85;1.55;;;;;;;;;;5054795;28;20094;-84
2022/08/13 16:49:27;;;;;;;2.47;1.58;;;;;;;;;;5071640;28;20383;-84
2022/08/13 16:52:12;;;;;;;1.60;1.33;;;;;;;;;;5050564;28;20501;-83
2022/08/13 16:54:59;;;;;;;1.60;1.30;;;;;;;;;;5057839;28;20021;-73
2022/08/13 16:57:45;;;;;;;1.90;1.40;;;;;;;;;;5069612;28;20443;-75
2022/08/13 17:00:32;;;;;;;3.38;1.95;;;;;;;;;;5048014;28;20040;-76
2022/08/13 17:09:26;;;;;;;1.60;1.48;;;;;;;;;;5065484;28;20029;-77